sensor_id;sensor_type;location;lat;lon;timestamp;P1;durP1;ratioP1;P2;durP2;ratioP2
22863;SDS011;11599;49.882;8.680;2023-02-15T00:04:50;33.87;;;12.73;;
22863;SDS011;11599;49.882;8.680;2023-02-15T00:15:13;30.13;;;12.67;;
22863;SDS011;11599;49.882;8.680;2023-02-15T00:25:34;34.83;;;13.47;;
22863;SDS011;11599;49.882;8.680;2023-02-15T00:35:57;29.27;;;12.63;;
22863;SDS011;11599;49.882;8.680;2023-02-15T00:46:19;29.03;;;12.83;;
22863;SDS011;11599;49.882;8.680;2023-02-15T00:56:42;31.90;;;13.37;;
22863;SDS011;11599;49.882;8.680;2023-02-15T01:07:03;36.47;;;13.90;;
22863;SDS011;11599;49.882;8.680;2023-02-15T01:17:28;32.57;;;12.83;;
22863;SDS011;11599;49.882;8.680;2023-02-15T01:27:49;35.27;;;13.10;;
22863;SDS011;11599;49.882;8.680;2023-02-15T01:38:13;36.47;;;12.80;;
22863;SDS011;11599;49.882;8.680;2023-02-15T01:48:34;32.00;;;12.43;;
22863;SDS011;11599;49.882;8.680;2023-02-15T01:59:02;34.67;;;13.27;;
22863;SDS011;11599;49.882;8.680;2023-02-15T02:09:24;34.77;;;13.67;;
22863;SDS011;11599;49.882;8.680;2023-02-15T02:19:55;34.70;;;13.30;;
22863;SDS011;11599;49.882;8.680;2023-02-15T02:30:33;34.77;;;13.30;;
22863;SDS011;11599;49.882;8.680;2023-02-15T02:41:02;34.33;;;12.27;;
22863;SDS011;11599;49.882;8.680;2023-02-15T02:51:27;36.93;;;13.33;;
22863;SDS011;11599;49.882;8.680;2023-02-15T03:01:50;31.83;;;12.17;;
22863;SDS011;11599;49.882;8.680;2023-02-15T03:12:13;29.03;;;12.03;;
22863;SDS011;11599;49.882;8.680;2023-02-15T03:22:41;30.63;;;12.67;;
22863;SDS011;11599;49.882;8.680;2023-02-15T03:33:06;44.17;;;12.00;;
22863;SDS011;11599;49.882;8.680;2023-02-15T03:43:30;33.27;;;12.50;;
22863;SDS011;11599;49.882;8.680;2023-02-15T03:53:54;28.83;;;11.70;;
22863;SDS011;11599;49.882;8.680;2023-02-15T04:04:18;45.97;;;12.43;;
22863;SDS011;11599;49.882;8.680;2023-02-15T04:14:40;33.33;;;11.53;;
22863;SDS011;11599;49.882;8.680;2023-02-15T04:25:20;32.90;;;11.80;;
22863;SDS011;11599;49.882;8.680;2023-02-15T04:35:42;28.23;;;10.77;;
22863;SDS011;11599;49.882;8.680;2023-02-15T04:46:06;28.93;;;11.10;;
22863;SDS011;11599;49.882;8.680;2023-02-15T04:56:27;32.20;;;10.97;;
22863;SDS011;11599;49.882;8.680;2023-02-15T05:06:54;42.63;;;11.80;;
22863;SDS011;11599;49.882;8.680;2023-02-15T05:27:34;24.00;;;10.07;;
22863;SDS011;11599;49.882;8.680;2023-02-15T05:38:13;36.53;;;10.93;;
22863;SDS011;11599;49.882;8.680;2023-02-15T05:48:46;28.70;;;9.67;;
22863;SDS011;11599;49.882;8.680;2023-02-15T06:09:27;34.97;;;10.47;;
22863;SDS011;11599;49.882;8.680;2023-02-15T06:19:48;23.10;;;9.33;;
22863;SDS011;11599;49.882;8.680;2023-02-15T06:30:12;25.37;;;9.20;;
22863;SDS011;11599;49.882;8.680;2023-02-15T06:40:33;23.07;;;9.97;;
22863;SDS011;11599;49.882;8.680;2023-02-15T07:01:20;28.93;;;10.37;;
22863;SDS011;11599;49.882;8.680;2023-02-15T07:11:41;25.50;;;10.37;;
22863;SDS011;11599;49.882;8.680;2023-02-15T07:22:22;24.90;;;9.27;;
22863;SDS011;11599;49.882;8.680;2023-02-15T07:32:43;29.10;;;10.33;;
22863;SDS011;11599;49.882;8.680;2023-02-15T07:43:25;25.40;;;10.10;;
22863;SDS011;11599;49.882;8.680;2023-02-15T07:53:50;29.73;;;10.83;;
22863;SDS011;11599;49.882;8.680;2023-02-15T08:24:53;41.53;;;14.00;;
22863;SDS011;11599;49.882;8.680;2023-02-15T08:35:16;40.13;;;13.17;;
22863;SDS011;11599;49.882;8.680;2023-02-15T08:45:39;36.87;;;12.30;;
22863;SDS011;11599;49.882;8.680;2023-02-15T08:56:00;40.60;;;12.90;;
22863;SDS011;11599;49.882;8.680;2023-02-15T09:06:23;33.47;;;12.40;;
22863;SDS011;11599;49.882;8.680;2023-02-15T09:16:45;32.27;;;12.57;;
22863;SDS011;11599;49.882;8.680;2023-02-15T09:27:10;37.63;;;12.93;;
22863;SDS011;11599;49.882;8.680;2023-02-15T09:37:31;38.50;;;12.90;;
22863;SDS011;11599;49.882;8.680;2023-02-15T09:48:03;33.90;;;12.23;;
22863;SDS011;11599;49.882;8.680;2023-02-15T09:58:31;31.50;;;11.80;;
22863;SDS011;11599;49.882;8.680;2023-02-15T10:09:00;36.20;;;12.57;;
22863;SDS011;11599;49.882;8.680;2023-02-15T10:19:25;38.63;;;14.40;;
22863;SDS011;11599;49.882;8.680;2023-02-15T10:29:53;46.30;;;15.27;;
22863;SDS011;11599;49.882;8.680;2023-02-15T10:40:23;39.30;;;14.50;;
22863;SDS011;11599;49.882;8.680;2023-02-15T10:50:48;40.17;;;15.00;;
22863;SDS011;11599;49.882;8.680;2023-02-15T11:01:12;38.23;;;14.50;;
22863;SDS011;11599;49.882;8.680;2023-02-15T11:11:37;38.90;;;14.67;;
22863;SDS011;11599;49.882;8.680;2023-02-15T11:21:59;35.43;;;13.83;;
22863;SDS011;11599;49.882;8.680;2023-02-15T11:32:24;46.10;;;15.47;;
22863;SDS011;11599;49.882;8.680;2023-02-15T11:42:47;46.37;;;16.03;;
22863;SDS011;11599;49.882;8.680;2023-02-15T11:53:12;43.53;;;16.30;;
22863;SDS011;11599;49.882;8.680;2023-02-15T12:03:39;47.97;;;16.03;;
22863;SDS011;11599;49.882;8.680;2023-02-15T12:14:14;42.60;;;15.93;;
22863;SDS011;11599;49.882;8.680;2023-02-15T12:24:44;42.37;;;15.23;;
22863;SDS011;11599;49.882;8.680;2023-02-15T12:35:20;39.40;;;14.97;;
22863;SDS011;11599;49.882;8.680;2023-02-15T12:45:45;44.00;;;15.17;;
22863;SDS011;11599;49.882;8.680;2023-02-15T12:56:18;46.33;;;16.33;;
22863;SDS011;11599;49.882;8.680;2023-02-15T14:19:40;33.50;;;15.40;;
22863;SDS011;11599;49.882;8.680;2023-02-15T14:30:10;31.30;;;14.10;;
22863;SDS011;11599;49.882;8.680;2023-02-15T14:40:41;32.67;;;15.33;;
22863;SDS011;11599;49.882;8.680;2023-02-15T15:03:02;44.23;;;17.83;;
22863;SDS011;11599;49.882;8.680;2023-02-15T15:13:36;42.50;;;17.30;;
22863;SDS011;11599;49.882;8.680;2023-02-15T15:24:08;48.73;;;18.93;;
22863;SDS011;11599;49.882;8.680;2023-02-15T15:34:43;42.70;;;18.53;;
22863;SDS011;11599;49.882;8.680;2023-02-15T15:45:19;47.90;;;19.53;;
22863;SDS011;11599;49.882;8.680;2023-02-15T15:55:46;48.13;;;19.73;;
22863;SDS011;11599;49.882;8.680;2023-02-15T16:06:13;45.37;;;18.80;;
22863;SDS011;11599;49.882;8.680;2023-02-15T16:16:35;42.63;;;18.10;;
22863;SDS011;11599;49.882;8.680;2023-02-15T16:58:48;46.53;;;18.53;;
22863;SDS011;11599;49.882;8.680;2023-02-15T17:09:13;46.30;;;18.90;;
22863;SDS011;11599;49.882;8.680;2023-02-15T17:19:43;45.37;;;19.03;;
22863;SDS011;11599;49.882;8.680;2023-02-15T20:02:39;64.23;;;23.40;;
22863;SDS011;11599;49.882;8.680;2023-02-15T20:13:18;64.00;;;22.67;;
22863;SDS011;11599;49.882;8.680;2023-02-15T20:23:46;60.13;;;21.73;;
22863;SDS011;11599;49.882;8.680;2023-02-15T20:34:10;64.43;;;22.33;;
22863;SDS011;11599;49.882;8.680;2023-02-15T20:44:33;64.20;;;22.47;;
22863;SDS011;11599;49.882;8.680;2023-02-15T20:54:55;71.80;;;23.17;;
22863;SDS011;11599;49.882;8.680;2023-02-15T21:05:22;62.80;;;22.30;;
22863;SDS011;11599;49.882;8.680;2023-02-15T21:15:45;62.53;;;23.07;;
22863;SDS011;11599;49.882;8.680;2023-02-15T21:26:14;78.30;;;23.53;;
22863;SDS011;11599;49.882;8.680;2023-02-15T21:36:36;67.53;;;23.03;;
22863;SDS011;11599;49.882;8.680;2023-02-15T21:47:03;69.17;;;24.97;;
22863;SDS011;11599;49.882;8.680;2023-02-15T21:57:43;72.27;;;24.27;;
22863;SDS011;11599;49.882;8.680;2023-02-15T22:08:09;66.17;;;22.17;;
22863;SDS011;11599;49.882;8.680;2023-02-15T22:18:32;69.73;;;24.37;;
22863;SDS011;11599;49.882;8.680;2023-02-15T22:28:55;68.97;;;23.87;;
22863;SDS011;11599;49.882;8.680;2023-02-15T22:39:18;67.47;;;23.00;;
22863;SDS011;11599;49.882;8.680;2023-02-15T22:49:40;65.13;;;23.90;;
22863;SDS011;11599;49.882;8.680;2023-02-15T23:00:03;62.57;;;19.77;;
22863;SDS011;11599;49.882;8.680;2023-02-15T23:10:26;56.83;;;20.57;;
22863;SDS011;11599;49.882;8.680;2023-02-15T23:20:49;46.90;;;18.40;;
22863;SDS011;11599;49.882;8.680;2023-02-15T23:31:15;50.73;;;19.87;;
22863;SDS011;11599;49.882;8.680;2023-02-15T23:41:37;57.13;;;20.10;;
22863;SDS011;11599;49.882;8.680;2023-02-15T23:52:00;52.60;;;19.67;;
